K11 weather

Sam Riggs Airpark
Claremore, Oklahoma, United States

Public forecast

Using degrees Fahrenheit for public forecast. Weather courtesy of forecast.io.

METAR (pilot weather report)

Closest report is Claremore Regional Airport, 9.5 nm (17.5 km) ENE. Retrieved 2019/04/22 19:35 UTC (35 seconds ago):

KGCM 221935Z AUTO 19010KT 10SM OVC024 21/16 A3005 RMK AO2

TAF (pilot weather forecast)

Closest forecast is Tulsa International Airport, 11.5 nm (21.3 km) W. Retrieved 2019/04/22 18:22 UTC (1 hour ago):

TAF KTUL 221720Z 2218/2318 19010KT P6SM OVC020 FM222100 20012KT P6SM BKN035 PROB30 2304/2310 5SM -TSRA BR BKN025CB FM231000 01007KT P6SM BKN025 TEMPO 2310/2314 4SM TSRA OVC015CB FM231400 02006KT 5SM -RA BKN025